< < Back
Terminal Aerodrome Forecast


Current Version              Previous Versions:   1  2  3  4  5  6  7  8  9  

Terminal Aerodrome Forecast

253
FTUS42 KJAX 311700
TAFSSI
TAF
KSSI 311740Z 3118/0118 14007KT P6SM FEW020 SCT100
     FM312000 12008KT P6SM SCT035
     FM010400 19005KT P6SM FEW030 SCT100 BKN250=



Latest METAR

794
SAUS70 KWBC 011200 RRU
MTRSSI
METAR KSSI 011153Z AUTO 32004KT 10SM CLR 25/23 A3012 RMK AO2 SLP198
T02500228 10256 20239 53016


USA.gov is the U.S. government's official web portal to all federal, state and local government web resources and services.